sensor_id;sensor_type;location;lat;lon;timestamp;pressure;altitude;pressure_sealevel;temperature;humidity
77469;BME280;68840;50.272;12.818;2023-06-05T00:00:07;96329;;;11.1;47.7
77469;BME280;68840;50.272;12.818;2023-06-05T00:02:06;96332;;;11.0;47.8
77469;BME280;68840;50.272;12.818;2023-06-05T00:04:06;96332;;;11.0;48.1
77469;BME280;68840;50.272;12.818;2023-06-05T00:06:06;96332;;;10.9;48.1
77469;BME280;68840;50.272;12.818;2023-06-05T00:08:05;96332;;;10.9;48.4
77469;BME280;68840;50.272;12.818;2023-06-05T00:10:07;96334;;;10.9;48.5
77469;BME280;68840;50.272;12.818;2023-06-05T00:12:06;96333;;;10.9;48.1
77469;BME280;68840;50.272;12.818;2023-06-05T00:14:08;96329;;;10.8;48.1
77469;BME280;68840;50.272;12.818;2023-06-05T00:16:06;96327;;;10.8;47.9
77469;BME280;68840;50.272;12.818;2023-06-05T00:18:05;96325;;;10.8;48.2
77469;BME280;68840;50.272;12.818;2023-06-05T00:20:09;96327;;;10.8;48.3
77469;BME280;68840;50.272;12.818;2023-06-05T00:22:05;96328;;;10.8;48.2
77469;BME280;68840;50.272;12.818;2023-06-05T00:24:06;96329;;;10.7;48.5
77469;BME280;68840;50.272;12.818;2023-06-05T00:26:05;96327;;;10.7;48.4
77469;BME280;68840;50.272;12.818;2023-06-05T00:28:05;96326;;;10.7;49.0
77469;BME280;68840;50.272;12.818;2023-06-05T00:30:06;96323;;;10.6;48.5
77469;BME280;68840;50.272;12.818;2023-06-05T00:32:05;96320;;;10.6;49.1
77469;BME280;68840;50.272;12.818;2023-06-05T00:34:05;96318;;;10.5;49.3
77469;BME280;68840;50.272;12.818;2023-06-05T00:36:06;96319;;;10.5;49.5
77469;BME280;68840;50.272;12.818;2023-06-05T00:38:06;96317;;;10.5;49.4
77469;BME280;68840;50.272;12.818;2023-06-05T00:40:07;96316;;;10.5;49.4
77469;BME280;68840;50.272;12.818;2023-06-05T00:42:06;96314;;;10.4;49.5
77469;BME280;68840;50.272;12.818;2023-06-05T00:44:05;96312;;;10.4;49.3
77469;BME280;68840;50.272;12.818;2023-06-05T00:46:06;96312;;;10.4;49.0
77469;BME280;68840;50.272;12.818;2023-06-05T00:48:06;96313;;;10.4;49.0
77469;BME280;68840;50.272;12.818;2023-06-05T00:50:07;96316;;;10.4;48.9
77469;BME280;68840;50.272;12.818;2023-06-05T00:52:06;96315;;;10.4;48.7
77469;BME280;68840;50.272;12.818;2023-06-05T00:54:07;96314;;;10.4;48.5
77469;BME280;68840;50.272;12.818;2023-06-05T00:56:05;96312;;;10.4;48.2
77469;BME280;68840;50.272;12.818;2023-06-05T00:58:06;96313;;;10.4;48.1
77469;BME280;68840;50.272;12.818;2023-06-05T01:00:08;96312;;;10.5;47.9
77469;BME280;68840;50.272;12.818;2023-06-05T01:02:06;96311;;;10.5;48.2
77469;BME280;68840;50.272;12.818;2023-06-05T01:04:06;96310;;;10.5;48.3
77469;BME280;68840;50.272;12.818;2023-06-05T01:06:06;96310;;;10.5;48.1
77469;BME280;68840;50.272;12.818;2023-06-05T01:08:05;96314;;;10.5;48.1
77469;BME280;68840;50.272;12.818;2023-06-05T01:10:07;96316;;;10.4;47.8
77469;BME280;68840;50.272;12.818;2023-06-05T01:12:13;96319;;;10.5;47.7
77469;BME280;68840;50.272;12.818;2023-06-05T01:14:13;96320;;;10.5;47.6
77469;BME280;68840;50.272;12.818;2023-06-05T01:16:10;96322;;;10.5;47.7
77469;BME280;68840;50.272;12.818;2023-06-05T01:18:06;96324;;;10.5;47.4
77469;BME280;68840;50.272;12.818;2023-06-05T01:20:08;96325;;;10.5;47.5
77469;BME280;68840;50.272;12.818;2023-06-05T01:22:06;96325;;;10.6;47.7
77469;BME280;68840;50.272;12.818;2023-06-05T01:24:06;96325;;;10.6;47.9
77469;BME280;68840;50.272;12.818;2023-06-05T01:26:09;96324;;;10.6;48.0
77469;BME280;68840;50.272;12.818;2023-06-05T01:28:12;96323;;;10.7;48.2
77469;BME280;68840;50.272;12.818;2023-06-05T01:30:10;96321;;;10.7;48.5
77469;BME280;68840;50.272;12.818;2023-06-05T01:32:13;96318;;;10.7;48.8
77469;BME280;68840;50.272;12.818;2023-06-05T01:34:12;96318;;;10.7;49.3
77469;BME280;68840;50.272;12.818;2023-06-05T01:36:05;96321;;;10.7;49.4
77469;BME280;68840;50.272;12.818;2023-06-05T01:38:06;96320;;;10.7;49.6
77469;BME280;68840;50.272;12.818;2023-06-05T01:40:07;96318;;;10.6;49.5
77469;BME280;68840;50.272;12.818;2023-06-05T01:42:06;96314;;;10.6;49.4
77469;BME280;68840;50.272;12.818;2023-06-05T01:44:08;96313;;;10.5;49.6
77469;BME280;68840;50.272;12.818;2023-06-05T01:46:07;96312;;;10.5;49.7
77469;BME280;68840;50.272;12.818;2023-06-05T01:48:08;96312;;;10.4;49.5
77469;BME280;68840;50.272;12.818;2023-06-05T01:50:08;96309;;;10.4;49.6
77469;BME280;68840;50.272;12.818;2023-06-05T01:52:05;96307;;;10.3;49.7
77469;BME280;68840;50.272;12.818;2023-06-05T01:54:06;96311;;;10.3;50.2
77469;BME280;68840;50.272;12.818;2023-06-05T01:56:08;96311;;;10.2;51.0
77469;BME280;68840;50.272;12.818;2023-06-05T01:58:05;96307;;;10.1;51.3
77469;BME280;68840;50.272;12.818;2023-06-05T02:00:08;96304;;;10.1;51.5
77469;BME280;68840;50.272;12.818;2023-06-05T02:02:06;96301;;;10.0;52.4
77469;BME280;68840;50.272;12.818;2023-06-05T02:04:05;96301;;;10.0;52.5
77469;BME280;68840;50.272;12.818;2023-06-05T02:06:06;96301;;;9.9;52.7
77469;BME280;68840;50.272;12.818;2023-06-05T02:08:10;96302;;;9.9;53.4
77469;BME280;68840;50.272;12.818;2023-06-05T02:10:06;96303;;;9.8;53.3
77469;BME280;68840;50.272;12.818;2023-06-05T02:12:06;96303;;;9.8;53.7
77469;BME280;68840;50.272;12.818;2023-06-05T02:14:06;96303;;;9.8;53.5
77469;BME280;68840;50.272;12.818;2023-06-05T02:16:10;96301;;;9.8;53.8
77469;BME280;68840;50.272;12.818;2023-06-05T02:18:07;96299;;;9.8;53.9
77469;BME280;68840;50.272;12.818;2023-06-05T02:20:06;96298;;;9.8;53.9
77469;BME280;68840;50.272;12.818;2023-06-05T02:22:06;96294;;;9.8;53.9
77469;BME280;68840;50.272;12.818;2023-06-05T02:24:06;96290;;;9.7;53.4
77469;BME280;68840;50.272;12.818;2023-06-05T02:26:05;96287;;;9.7;53.3
77469;BME280;68840;50.272;12.818;2023-06-05T02:28:05;96288;;;9.6;53.8
77469;BME280;68840;50.272;12.818;2023-06-05T02:30:07;96288;;;9.6;53.6
77469;BME280;68840;50.272;12.818;2023-06-05T02:32:06;96287;;;9.6;53.8
77469;BME280;68840;50.272;12.818;2023-06-05T02:34:05;96287;;;9.5;54.0
77469;BME280;68840;50.272;12.818;2023-06-05T02:36:06;96286;;;9.5;54.1
77469;BME280;68840;50.272;12.818;2023-06-05T02:38:06;96282;;;9.5;53.6
77469;BME280;68840;50.272;12.818;2023-06-05T02:40:07;96281;;;9.5;53.4
77469;BME280;68840;50.272;12.818;2023-06-05T02:42:08;96279;;;9.5;53.5
77469;BME280;68840;50.272;12.818;2023-06-05T02:44:05;96278;;;9.5;53.5
77469;BME280;68840;50.272;12.818;2023-06-05T02:46:05;96276;;;9.4;53.8
77469;BME280;68840;50.272;12.818;2023-06-05T02:48:05;96275;;;9.4;53.8
77469;BME280;68840;50.272;12.818;2023-06-05T02:50:07;96273;;;9.4;53.4
77469;BME280;68840;50.272;12.818;2023-06-05T02:52:05;96271;;;9.4;53.5
77469;BME280;68840;50.272;12.818;2023-06-05T02:54:06;96273;;;9.4;53.3
77469;BME280;68840;50.272;12.818;2023-06-05T02:56:05;96272;;;9.4;53.1
77469;BME280;68840;50.272;12.818;2023-06-05T02:58:05;96272;;;9.4;53.0
77469;BME280;68840;50.272;12.818;2023-06-05T03:00:08;96271;;;9.4;53.3
77469;BME280;68840;50.272;12.818;2023-06-05T03:02:05;96270;;;9.4;52.9
77469;BME280;68840;50.272;12.818;2023-06-05T03:04:06;96268;;;9.4;53.1
77469;BME280;68840;50.272;12.818;2023-06-05T03:06:06;96265;;;9.4;53.3
77469;BME280;68840;50.272;12.818;2023-06-05T03:08:06;96262;;;9.4;53.4
77469;BME280;68840;50.272;12.818;2023-06-05T03:10:06;96261;;;9.4;53.6
77469;BME280;68840;50.272;12.818;2023-06-05T03:12:05;96261;;;9.4;53.9
77469;BME280;68840;50.272;12.818;2023-06-05T03:14:06;96259;;;9.4;54.1
77469;BME280;68840;50.272;12.818;2023-06-05T03:16:07;96260;;;9.4;54.2
77469;BME280;68840;50.272;12.818;2023-06-05T03:18:05;96259;;;9.4;54.4
77469;BME280;68840;50.272;12.818;2023-06-05T03:20:09;96259;;;9.4;54.5
77469;BME280;68840;50.272;12.818;2023-06-05T03:22:05;96260;;;9.5;54.8
77469;BME280;68840;50.272;12.818;2023-06-05T03:24:08;96257;;;9.5;54.7
77469;BME280;68840;50.272;12.818;2023-06-05T03:26:05;96258;;;9.5;54.6
77469;BME280;68840;50.272;12.818;2023-06-05T03:28:06;96256;;;9.5;54.8
77469;BME280;68840;50.272;12.818;2023-06-05T03:30:09;96256;;;9.6;55.1
77469;BME280;68840;50.272;12.818;2023-06-05T03:32:05;96256;;;9.6;55.3
77469;BME280;68840;50.272;12.818;2023-06-05T03:34:06;96256;;;9.7;55.5
77469;BME280;68840;50.272;12.818;2023-06-05T03:36:06;96258;;;9.7;55.8
77469;BME280;68840;50.272;12.818;2023-06-05T03:38:06;96257;;;9.7;55.9
77469;BME280;68840;50.272;12.818;2023-06-05T03:40:06;96257;;;9.7;56.1
77469;BME280;68840;50.272;12.818;2023-06-05T03:42:08;96257;;;9.8;56.4
77469;BME280;68840;50.272;12.818;2023-06-05T03:44:07;96259;;;9.8;55.9
77469;BME280;68840;50.272;12.818;2023-06-05T03:46:05;96261;;;9.9;55.4
77469;BME280;68840;50.272;12.818;2023-06-05T03:48:06;96258;;;10.0;56.1
77469;BME280;68840;50.272;12.818;2023-06-05T03:50:06;96258;;;10.1;56.7
77469;BME280;68840;50.272;12.818;2023-06-05T03:52:10;96257;;;10.2;55.8
77469;BME280;68840;50.272;12.818;2023-06-05T03:54:08;96260;;;10.3;55.8
77469;BME280;68840;50.272;12.818;2023-06-05T03:56:05;96264;;;10.4;55.9
77469;BME280;68840;50.272;12.818;2023-06-05T03:58:06;96264;;;10.5;55.7
77469;BME280;68840;50.272;12.818;2023-06-05T04:00:09;96266;;;10.5;56.3
77469;BME280;68840;50.272;12.818;2023-06-05T04:02:07;96267;;;10.6;57.5
77469;BME280;68840;50.272;12.818;2023-06-05T04:04:05;96266;;;10.8;56.9
77469;BME280;68840;50.272;12.818;2023-06-05T04:06:06;96267;;;11.0;57.2
77469;BME280;68840;50.272;12.818;2023-06-05T04:08:05;96267;;;11.2;57.4
77469;BME280;68840;50.272;12.818;2023-06-05T04:10:06;96267;;;11.4;55.8
77469;BME280;68840;50.272;12.818;2023-06-05T04:12:05;96267;;;11.6;55.8
77469;BME280;68840;50.272;12.818;2023-06-05T04:14:05;96268;;;11.8;54.8
77469;BME280;68840;50.272;12.818;2023-06-05T04:16:05;96271;;;12.0;53.5
77469;BME280;68840;50.272;12.818;2023-06-05T04:18:05;96274;;;12.1;53.0
77469;BME280;68840;50.272;12.818;2023-06-05T04:20:10;96275;;;12.1;53.2
77469;BME280;68840;50.272;12.818;2023-06-05T04:22:05;96276;;;12.2;53.0
77469;BME280;68840;50.272;12.818;2023-06-05T04:24:08;96279;;;12.3;52.6
77469;BME280;68840;50.272;12.818;2023-06-05T04:26:06;96280;;;12.3;52.5
77469;BME280;68840;50.272;12.818;2023-06-05T04:28:06;96278;;;12.4;52.0
77469;BME280;68840;50.272;12.818;2023-06-05T04:30:07;96282;;;12.4;51.8
77469;BME280;68840;50.272;12.818;2023-06-05T04:32:07;96283;;;12.5;51.7
77469;BME280;68840;50.272;12.818;2023-06-05T04:34:06;96283;;;12.5;51.7
77469;BME280;68840;50.272;12.818;2023-06-05T04:36:05;96283;;;12.7;50.9
77469;BME280;68840;50.272;12.818;2023-06-05T04:38:05;96283;;;12.9;50.4
77469;BME280;68840;50.272;12.818;2023-06-05T04:40:08;96284;;;13.1;50.3
77469;BME280;68840;50.272;12.818;2023-06-05T04:42:07;96284;;;13.3;49.9
77469;BME280;68840;50.272;12.818;2023-06-05T04:44:05;96286;;;13.6;49.6
77469;BME280;68840;50.272;12.818;2023-06-05T04:46:05;96288;;;13.9;49.2
77469;BME280;68840;50.272;12.818;2023-06-05T04:48:05;96286;;;14.3;48.2
77469;BME280;68840;50.272;12.818;2023-06-05T04:50:06;96284;;;14.8;47.5
77469;BME280;68840;50.272;12.818;2023-06-05T04:52:06;96285;;;15.2;47.1
77469;BME280;68840;50.272;12.818;2023-06-05T04:54:05;96286;;;15.5;47.1
77469;BME280;68840;50.272;12.818;2023-06-05T04:56:06;96286;;;15.8;47.2
77469;BME280;68840;50.272;12.818;2023-06-05T04:58:06;96285;;;15.9;47.1
77469;BME280;68840;50.272;12.818;2023-06-05T05:00:07;96281;;;16.0;46.5
77469;BME280;68840;50.272;12.818;2023-06-05T05:02:05;96281;;;16.1;46.5
77469;BME280;68840;50.272;12.818;2023-06-05T05:04:05;96282;;;16.1;45.6
77469;BME280;68840;50.272;12.818;2023-06-05T05:06:06;96282;;;16.0;46.5
77469;BME280;68840;50.272;12.818;2023-06-05T05:08:06;96283;;;16.0;46.6
77469;BME280;68840;50.272;12.818;2023-06-05T05:10:07;96285;;;16.0;46.8
77469;BME280;68840;50.272;12.818;2023-06-05T05:12:07;96283;;;16.1;47.0
77469;BME280;68840;50.272;12.818;2023-06-05T05:14:05;96281;;;16.1;46.6
77469;BME280;68840;50.272;12.818;2023-06-05T05:16:07;96279;;;16.1;46.8
77469;BME280;68840;50.272;12.818;2023-06-05T05:18:05;96279;;;16.1;46.7
77469;BME280;68840;50.272;12.818;2023-06-05T05:20:06;96281;;;16.1;46.4
77469;BME280;68840;50.272;12.818;2023-06-05T05:22:06;96279;;;16.0;46.5
77469;BME280;68840;50.272;12.818;2023-06-05T05:24:06;96283;;;15.9;46.8
77469;BME280;68840;50.272;12.818;2023-06-05T05:26:07;96285;;;15.9;46.7
77469;BME280;68840;50.272;12.818;2023-06-05T05:28:06;96288;;;15.9;47.5
77469;BME280;68840;50.272;12.818;2023-06-05T05:30:07;96288;;;15.9;47.0
77469;BME280;68840;50.272;12.818;2023-06-05T05:32:05;96287;;;16.0;47.3
77469;BME280;68840;50.272;12.818;2023-06-05T05:34:05;96286;;;16.1;46.9
77469;BME280;68840;50.272;12.818;2023-06-05T05:36:05;96288;;;16.3;46.9
77469;BME280;68840;50.272;12.818;2023-06-05T05:38:06;96288;;;16.5;46.1
77469;BME280;68840;50.272;12.818;2023-06-05T05:40:07;96287;;;16.8;45.2
77469;BME280;68840;50.272;12.818;2023-06-05T05:42:05;96291;;;17.2;44.5
77469;BME280;68840;50.272;12.818;2023-06-05T05:44:06;96293;;;17.5;44.3
77469;BME280;68840;50.272;12.818;2023-06-05T05:46:06;96297;;;17.9;43.1
77469;BME280;68840;50.272;12.818;2023-06-05T05:48:05;96301;;;18.2;41.9
77469;BME280;68840;50.272;12.818;2023-06-05T05:50:06;96299;;;18.5;41.1
77469;BME280;68840;50.272;12.818;2023-06-05T05:52:05;96298;;;18.7;40.6
77469;BME280;68840;50.272;12.818;2023-06-05T05:54:05;96302;;;19.0;40.5
77469;BME280;68840;50.272;12.818;2023-06-05T05:56:05;96302;;;19.2;40.4
77469;BME280;68840;50.272;12.818;2023-06-05T05:58:06;96301;;;19.4;40.2
77469;BME280;68840;50.272;12.818;2023-06-05T06:00:11;96300;;;19.6;39.9
77469;BME280;68840;50.272;12.818;2023-06-05T06:02:09;96298;;;19.8;39.6
77469;BME280;68840;50.272;12.818;2023-06-05T06:04:05;96300;;;19.9;38.4
77469;BME280;68840;50.272;12.818;2023-06-05T06:06:07;96298;;;20.0;38.3
77469;BME280;68840;50.272;12.818;2023-06-05T06:08:06;96300;;;19.9;38.0
77469;BME280;68840;50.272;12.818;2023-06-05T06:10:08;96299;;;19.8;38.3
77469;BME280;68840;50.272;12.818;2023-06-05T06:12:07;96299;;;19.6;38.8
77469;BME280;68840;50.272;12.818;2023-06-05T06:14:06;96299;;;19.5;38.4
77469;BME280;68840;50.272;12.818;2023-06-05T06:16:06;96300;;;19.3;39.3
77469;BME280;68840;50.272;12.818;2023-06-05T06:18:05;96301;;;19.1;39.0
77469;BME280;68840;50.272;12.818;2023-06-05T06:20:06;96296;;;18.9;38.9
77469;BME280;68840;50.272;12.818;2023-06-05T06:22:11;96296;;;18.8;39.4
77469;BME280;68840;50.272;12.818;2023-06-05T06:24:05;96296;;;18.6;40.0
77469;BME280;68840;50.272;12.818;2023-06-05T06:26:06;96299;;;18.4;40.6
77469;BME280;68840;50.272;12.818;2023-06-05T06:28:06;96297;;;18.3;42.5
77469;BME280;68840;50.272;12.818;2023-06-05T06:30:07;96297;;;18.3;41.3
77469;BME280;68840;50.272;12.818;2023-06-05T06:32:05;96296;;;18.3;40.6
77469;BME280;68840;50.272;12.818;2023-06-05T06:34:06;96297;;;18.3;40.7
77469;BME280;68840;50.272;12.818;2023-06-05T06:36:05;96298;;;18.4;40.9
77469;BME280;68840;50.272;12.818;2023-06-05T06:38:05;96300;;;18.4;42.4
77469;BME280;68840;50.272;12.818;2023-06-05T06:40:09;96299;;;18.5;41.0
77469;BME280;68840;50.272;12.818;2023-06-05T06:42:05;96298;;;18.5;40.7
77469;BME280;68840;50.272;12.818;2023-06-05T06:44:05;96298;;;18.5;41.1
77469;BME280;68840;50.272;12.818;2023-06-05T06:46:06;96297;;;18.6;41.2
77469;BME280;68840;50.272;12.818;2023-06-05T06:48:06;96296;;;18.7;41.0
77469;BME280;68840;50.272;12.818;2023-06-05T06:50:06;96297;;;18.7;40.8
77469;BME280;68840;50.272;12.818;2023-06-05T06:52:06;96297;;;18.7;41.8
77469;BME280;68840;50.272;12.818;2023-06-05T06:54:06;96296;;;18.8;40.8
77469;BME280;68840;50.272;12.818;2023-06-05T06:56:05;96298;;;18.8;41.3
77469;BME280;68840;50.272;12.818;2023-06-05T06:58:05;96296;;;18.8;40.7
77469;BME280;68840;50.272;12.818;2023-06-05T07:00:10;96298;;;18.8;40.3
77469;BME280;68840;50.272;12.818;2023-06-05T07:02:11;96299;;;18.9;41.4
77469;BME280;68840;50.272;12.818;2023-06-05T07:04:05;96301;;;18.9;41.6
77469;BME280;68840;50.272;12.818;2023-06-05T07:06:05;96301;;;18.9;41.3
77469;BME280;68840;50.272;12.818;2023-06-05T07:08:05;96299;;;18.9;41.7
77469;BME280;68840;50.272;12.818;2023-06-05T07:10:06;96297;;;18.9;41.5
77469;BME280;68840;50.272;12.818;2023-06-05T07:12:08;96297;;;19.0;41.4
77469;BME280;68840;50.272;12.818;2023-06-05T07:14:05;96296;;;19.0;42.1
77469;BME280;68840;50.272;12.818;2023-06-05T07:16:05;96298;;;19.0;41.2
77469;BME280;68840;50.272;12.818;2023-06-05T07:18:06;96298;;;19.1;42.2
77469;BME280;68840;50.272;12.818;2023-06-05T07:20:08;96297;;;19.2;42.6
77469;BME280;68840;50.272;12.818;2023-06-05T07:22:06;96296;;;19.3;42.9
77469;BME280;68840;50.272;12.818;2023-06-05T07:24:05;96296;;;19.4;42.2
77469;BME280;68840;50.272;12.818;2023-06-05T07:26:05;96297;;;19.5;43.6
77469;BME280;68840;50.272;12.818;2023-06-05T07:28:09;96298;;;19.6;43.2
77469;BME280;68840;50.272;12.818;2023-06-05T07:30:06;96297;;;19.7;41.9
77469;BME280;68840;50.272;12.818;2023-06-05T07:32:06;96295;;;19.8;41.7
77469;BME280;68840;50.272;12.818;2023-06-05T07:34:05;96295;;;19.8;42.2
77469;BME280;68840;50.272;12.818;2023-06-05T07:36:05;96293;;;19.8;41.3
77469;BME280;68840;50.272;12.818;2023-06-05T07:38:05;96294;;;19.8;43.2
77469;BME280;68840;50.272;12.818;2023-06-05T07:40:06;96296;;;19.8;42.7
77469;BME280;68840;50.272;12.818;2023-06-05T07:42:06;96297;;;19.8;42.5
77469;BME280;68840;50.272;12.818;2023-06-05T07:44:07;96297;;;19.8;42.4
77469;BME280;68840;50.272;12.818;2023-06-05T07:46:06;96295;;;19.9;42.2
77469;BME280;68840;50.272;12.818;2023-06-05T07:48:05;96297;;;19.9;43.5
77469;BME280;68840;50.272;12.818;2023-06-05T07:50:07;96297;;;20.0;43.6
77469;BME280;68840;50.272;12.818;2023-06-05T07:52:06;96291;;;20.1;42.9
77469;BME280;68840;50.272;12.818;2023-06-05T07:54:07;96293;;;20.3;43.6
77469;BME280;68840;50.272;12.818;2023-06-05T07:56:05;96294;;;20.4;42.4
77469;BME280;68840;50.272;12.818;2023-06-05T07:58:07;96296;;;20.4;42.3
77469;BME280;68840;50.272;12.818;2023-06-05T08:00:10;96295;;;20.5;44.4
77469;BME280;68840;50.272;12.818;2023-06-05T08:02:05;96288;;;20.6;41.7
77469;BME280;68840;50.272;12.818;2023-06-05T08:04:07;96281;;;20.7;41.3
77469;BME280;68840;50.272;12.818;2023-06-05T08:06:05;96284;;;20.8;41.5
77469;BME280;68840;50.272;12.818;2023-06-05T08:08:05;96287;;;20.9;40.9
77469;BME280;68840;50.272;12.818;2023-06-05T08:10:06;96287;;;21.0;41.0
77469;BME280;68840;50.272;12.818;2023-06-05T08:12:06;96284;;;21.0;40.2
77469;BME280;68840;50.272;12.818;2023-06-05T08:14:06;96288;;;21.0;39.4
77469;BME280;68840;50.272;12.818;2023-06-05T08:16:06;96289;;;21.0;39.4
77469;BME280;68840;50.272;12.818;2023-06-05T08:18:05;96292;;;21.0;39.1
77469;BME280;68840;50.272;12.818;2023-06-05T08:20:07;96292;;;20.9;38.1
77469;BME280;68840;50.272;12.818;2023-06-05T08:22:05;96293;;;20.9;38.8
77469;BME280;68840;50.272;12.818;2023-06-05T08:24:06;96291;;;20.9;38.4
77469;BME280;68840;50.272;12.818;2023-06-05T08:26:10;96293;;;21.0;39.0
77469;BME280;68840;50.272;12.818;2023-06-05T08:28:05;96294;;;21.0;38.8
77469;BME280;68840;50.272;12.818;2023-06-05T08:30:06;96293;;;21.0;38.8
77469;BME280;68840;50.272;12.818;2023-06-05T08:32:06;96294;;;21.1;40.9
77469;BME280;68840;50.272;12.818;2023-06-05T08:34:05;96291;;;21.1;42.1
77469;BME280;68840;50.272;12.818;2023-06-05T08:36:06;96292;;;21.2;40.6
77469;BME280;68840;50.272;12.818;2023-06-05T08:38:06;96291;;;21.2;41.6
77469;BME280;68840;50.272;12.818;2023-06-05T08:40:10;96294;;;21.3;42.1
77469;BME280;68840;50.272;12.818;2023-06-05T08:42:08;96290;;;21.4;40.7
77469;BME280;68840;50.272;12.818;2023-06-05T08:44:05;96289;;;21.5;40.0
77469;BME280;68840;50.272;12.818;2023-06-05T08:46:07;96287;;;21.5;40.7
77469;BME280;68840;50.272;12.818;2023-06-05T08:48:07;96286;;;21.6;39.9
77469;BME280;68840;50.272;12.818;2023-06-05T08:50:06;96281;;;21.7;40.4
77469;BME280;68840;50.272;12.818;2023-06-05T08:52:07;96278;;;21.8;39.5
77469;BME280;68840;50.272;12.818;2023-06-05T08:54:12;96279;;;21.9;39.7
77469;BME280;68840;50.272;12.818;2023-06-05T08:56:06;96281;;;22.0;38.1
77469;BME280;68840;50.272;12.818;2023-06-05T08:58:06;96283;;;22.0;36.7
77469;BME280;68840;50.272;12.818;2023-06-05T09:00:08;96278;;;22.0;37.0
77469;BME280;68840;50.272;12.818;2023-06-05T09:02:05;96276;;;21.9;37.8
77469;BME280;68840;50.272;12.818;2023-06-05T09:04:05;96275;;;21.9;38.1
77469;BME280;68840;50.272;12.818;2023-06-05T09:06:06;96276;;;21.9;37.8
77469;BME280;68840;50.272;12.818;2023-06-05T09:08:06;96275;;;21.9;37.1
77469;BME280;68840;50.272;12.818;2023-06-05T09:10:20;96274;;;21.9;38.3
77469;BME280;68840;50.272;12.818;2023-06-05T09:12:07;96271;;;21.9;38.4
77469;BME280;68840;50.272;12.818;2023-06-05T09:14:06;96271;;;22.0;37.9
77469;BME280;68840;50.272;12.818;2023-06-05T09:16:06;96272;;;22.1;39.5
77469;BME280;68840;50.272;12.818;2023-06-05T09:18:09;96274;;;22.1;39.5
77469;BME280;68840;50.272;12.818;2023-06-05T09:20:22;96271;;;22.2;38.5
77469;BME280;68840;50.272;12.818;2023-06-05T09:22:07;96273;;;22.3;38.7
77469;BME280;68840;50.272;12.818;2023-06-05T09:24:14;96271;;;22.4;37.6
77469;BME280;68840;50.272;12.818;2023-06-05T09:26:09;96268;;;22.5;38.1
77469;BME280;68840;50.272;12.818;2023-06-05T09:28:06;96270;;;22.6;38.6
77469;BME280;68840;50.272;12.818;2023-06-05T09:30:07;96273;;;22.7;36.6
77469;BME280;68840;50.272;12.818;2023-06-05T09:32:07;96268;;;22.8;36.5
77469;BME280;68840;50.272;12.818;2023-06-05T09:34:05;96267;;;22.9;37.3
77469;BME280;68840;50.272;12.818;2023-06-05T09:36:08;96269;;;23.0;37.6
77469;BME280;68840;50.272;12.818;2023-06-05T09:38:24;96267;;;23.1;37.8
77469;BME280;68840;50.272;12.818;2023-06-05T09:40:07;96266;;;23.3;37.9
77469;BME280;68840;50.272;12.818;2023-06-05T09:42:06;96265;;;23.4;36.4
77469;BME280;68840;50.272;12.818;2023-06-05T09:44:07;96262;;;23.5;37.3
77469;BME280;68840;50.272;12.818;2023-06-05T09:46:06;96262;;;23.7;36.5
77469;BME280;68840;50.272;12.818;2023-06-05T09:48:13;96260;;;23.8;36.2
77469;BME280;68840;50.272;12.818;2023-06-05T09:50:21;96261;;;23.9;35.4
77469;BME280;68840;50.272;12.818;2023-06-05T09:52:07;96257;;;23.9;35.0
77469;BME280;68840;50.272;12.818;2023-06-05T09:54:05;96254;;;24.0;34.7
77469;BME280;68840;50.272;12.818;2023-06-05T09:56:06;96253;;;24.0;35.5
77469;BME280;68840;50.272;12.818;2023-06-05T09:58:12;96258;;;24.1;34.2
77469;BME280;68840;50.272;12.818;2023-06-05T10:00:07;96260;;;24.2;33.6
77469;BME280;68840;50.272;12.818;2023-06-05T10:02:06;96260;;;24.2;34.0
77469;BME280;68840;50.272;12.818;2023-06-05T10:04:06;96254;;;24.3;33.6
77469;BME280;68840;50.272;12.818;2023-06-05T10:06:06;96258;;;24.3;33.1
77469;BME280;68840;50.272;12.818;2023-06-05T10:08:06;96251;;;24.3;32.7
77469;BME280;68840;50.272;12.818;2023-06-05T10:10:08;96251;;;24.3;32.7
77469;BME280;68840;50.272;12.818;2023-06-05T10:12:07;96257;;;24.2;32.9
77469;BME280;68840;50.272;12.818;2023-06-05T10:14:06;96253;;;24.1;33.0
77469;BME280;68840;50.272;12.818;2023-06-05T10:16:05;96250;;;24.0;33.3
77469;BME280;68840;50.272;12.818;2023-06-05T10:18:06;96251;;;24.0;34.2
77469;BME280;68840;50.272;12.818;2023-06-05T10:20:06;96246;;;24.0;34.2
77469;BME280;68840;50.272;12.818;2023-06-05T10:22:05;96246;;;24.1;34.0
77469;BME280;68840;50.272;12.818;2023-06-05T10:24:08;96248;;;24.2;32.7
77469;BME280;68840;50.272;12.818;2023-06-05T10:26:11;96247;;;24.2;32.0
77469;BME280;68840;50.272;12.818;2023-06-05T10:28:17;96246;;;24.2;32.0
77469;BME280;68840;50.272;12.818;2023-06-05T10:30:16;96245;;;24.2;32.8
77469;BME280;68840;50.272;12.818;2023-06-05T10:32:09;96245;;;24.1;32.5
77469;BME280;68840;50.272;12.818;2023-06-05T10:34:18;96247;;;24.2;32.8
77469;BME280;68840;50.272;12.818;2023-06-05T10:36:13;96251;;;24.2;33.0
77469;BME280;68840;50.272;12.818;2023-06-05T10:38:14;96249;;;24.2;32.8
77469;BME280;68840;50.272;12.818;2023-06-05T10:40:06;96244;;;24.3;32.8
77469;BME280;68840;50.272;12.818;2023-06-05T10:42:06;96244;;;24.3;32.3
77469;BME280;68840;50.272;12.818;2023-06-05T10:44:05;96244;;;24.2;32.0
77469;BME280;68840;50.272;12.818;2023-06-05T10:46:31;96239;;;24.2;32.6
77469;BME280;68840;50.272;12.818;2023-06-05T10:48:05;96241;;;24.1;32.5
77469;BME280;68840;50.272;12.818;2023-06-05T10:50:26;96233;;;24.1;32.5
77469;BME280;68840;50.272;12.818;2023-06-05T10:52:05;96232;;;24.1;33.9
77469;BME280;68840;50.272;12.818;2023-06-05T10:54:07;96234;;;24.1;32.9
77469;BME280;68840;50.272;12.818;2023-06-05T10:56:05;96237;;;24.1;32.0
77469;BME280;68840;50.272;12.818;2023-06-05T10:58:08;96235;;;24.1;31.8
77469;BME280;68840;50.272;12.818;2023-06-05T11:00:06;96229;;;24.2;33.0
77469;BME280;68840;50.272;12.818;2023-06-05T11:02:24;96235;;;24.2;32.6
77469;BME280;68840;50.272;12.818;2023-06-05T11:04:05;96232;;;24.3;31.8
77469;BME280;68840;50.272;12.818;2023-06-05T11:06:13;96231;;;24.4;31.8
77469;BME280;68840;50.272;12.818;2023-06-05T11:08:15;96235;;;24.4;32.5
77469;BME280;68840;50.272;12.818;2023-06-05T11:10:07;96232;;;24.5;33.1
77469;BME280;68840;50.272;12.818;2023-06-05T11:12:06;96231;;;24.7;33.0